Time;durP1;ratioP1;P1;durP2;ratioP2;P2;SDS_P1;SDS_P2;PMS_P1;PMS_P2;Temp;Humidity;BMP_temperature;BMP_pressure;BME280_temperature;BME280_humidity;BME280_pressure;Samples;Min_cycle;Max_cycle;Signal;HPM_P1;HPM_P2
2021/01/17 00:00:21;;;;;;;47.45;33.90;;;1.70;93.20;;;;;;5047507;28;20021;-87
2021/01/17 00:02:48;;;;;;;48.33;34.65;;;1.70;93.20;;;;;;5047624;28;20033;-88
2021/01/17 00:05:21;;;;;;;50.92;36.35;;;1.70;93.20;;;;;;5053302;28;20135;-87
2021/01/17 00:07:47;;;;;;;47.45;33.13;;;1.70;93.20;;;;;;5051202;28;20037;-88
2021/01/17 00:10:15;;;;;;;48.10;34.30;;;1.70;93.30;;;;;;5047549;28;20098;-88
2021/01/17 00:12:41;;;;;;;50.40;34.92;;;1.70;93.30;;;;;;5049489;28;20061;-88
2021/01/17 00:15:09;;;;;;;51.75;35.92;;;1.80;93.30;;;;;;5047294;28;20064;-85
2021/01/17 00:17:35;;;;;;;48.85;34.70;;;1.80;93.40;;;;;;5037897;28;20029;-87
2021/01/17 00:20:03;;;;;;;52.10;36.47;;;1.80;93.40;;;;;;5065073;28;20111;-87
2021/01/17 00:22:29;;;;;;;57.40;37.58;;;1.80;93.40;;;;;;5047455;28;20090;-89
2021/01/17 00:24:54;;;;;;;46.10;33.22;;;1.80;93.40;;;;;;5048820;28;20033;-83
2021/01/17 00:27:20;;;;;;;55.30;37.45;;;1.80;93.40;;;;;;5049563;28;20090;-88
2021/01/17 00:29:45;;;;;;;53.97;37.60;;;1.90;93.40;;;;;;5044385;28;20502;-88
2021/01/17 00:32:12;;;;;;;51.35;36.20;;;1.90;93.40;;;;;;5045413;28;20029;-87
2021/01/17 00:34:41;;;;;;;49.45;34.10;;;1.90;93.40;;;;;;5047182;28;20025;-89
2021/01/17 00:37:07;;;;;;;51.10;36.63;;;1.90;93.50;;;;;;5048284;28;21608;-83
2021/01/17 00:39:33;;;;;;;55.03;36.28;;;1.90;93.50;;;;;;5049260;28;20033;-88
2021/01/17 00:42:01;;;;;;;56.72;38.70;;;1.90;93.50;;;;;;5046591;28;20495;-88
2021/01/17 00:44:27;;;;;;;55.88;37.38;;;1.90;93.50;;;;;;5047211;28;20048;-89
2021/01/17 00:46:53;;;;;;;51.92;36.45;;;1.90;93.50;;;;;;5046337;28;20041;-88
2021/01/17 00:49:19;;;;;;;56.33;39.05;;;1.90;93.50;;;;;;5042310;28;20039;-89
2021/01/17 00:51:45;;;;;;;58.10;39.42;;;1.90;93.60;;;;;;5054256;28;20384;-88
2021/01/17 00:54:14;;;;;;;61.63;41.78;;;1.90;93.60;;;;;;5053184;28;20035;-88
2021/01/17 00:56:40;;;;;;;61.47;41.85;;;2.00;93.70;;;;;;5051464;28;20029;-88
2021/01/17 00:59:09;;;;;;;62.45;41.10;;;2.10;93.90;;;;;;5054937;28;20627;-88
2021/01/17 01:01:43;;;;;;;64.43;43.10;;;2.00;93.90;;;;;;5052353;28;20040;-89
2021/01/17 01:04:10;;;;;;;62.90;41.23;;;2.10;94.00;;;;;;5046392;28;20025;-89
2021/01/17 01:06:36;;;;;;;68.43;44.17;;;2.10;94.00;;;;;;5043050;28;20044;-88
2021/01/17 01:09:07;;;;;;;64.70;44.00;;;2.20;94.00;;;;;;5046486;28;20049;-88
2021/01/17 01:11:33;;;;;;;68.65;44.90;;;2.30;94.20;;;;;;5043811;28;20033;-90
2021/01/17 01:13:58;;;;;;;77.65;45.92;;;2.30;94.20;;;;;;5039808;28;20051;-88
2021/01/17 01:16:24;;;;;;;74.53;45.88;;;2.30;94.30;;;;;;5050961;28;20033;-89
2021/01/17 01:18:50;;;;;;;74.93;46.15;;;2.40;94.30;;;;;;5047497;28;20055;-86
2021/01/17 01:21:27;;;;;;;78.60;47.40;;;2.40;94.30;;;;;;5046234;28;20033;-89
2021/01/17 01:23:53;;;;;;;83.20;49.75;;;2.40;94.40;;;;;;5050459;28;20033;-89
2021/01/17 01:26:21;;;;;;;83.38;48.33;;;2.50;94.50;;;;;;5035951;28;20061;-89
2021/01/17 01:28:52;;;;;;;77.28;46.60;;;2.50;94.70;;;;;;5051925;28;21066;-90
2021/01/17 01:31:22;;;;;;;80.72;43.97;;;2.60;94.90;;;;;;5071408;28;20040;-83
2021/01/17 01:33:49;;;;;;;80.35;44.67;;;2.70;95.00;;;;;;5068590;28;20023;-82
2021/01/17 01:36:44;;;;;;;88.57;45.63;;;2.70;95.00;;;;;;5061434;28;20048;-81
2021/01/17 01:39:11;;;;;;;79.07;43.17;;;2.80;95.20;;;;;;5038762;28;20059;-87
2021/01/17 01:41:39;;;;;;;77.70;43.47;;;2.80;95.20;;;;;;5046145;28;20086;-89
2021/01/17 01:44:06;;;;;;;87.07;46.60;;;2.80;95.30;;;;;;5056141;28;20041;-88
2021/01/17 01:46:32;;;;;;;80.53;43.58;;;2.90;95.30;;;;;;5046599;28;20508;-89
2021/01/17 01:49:00;;;;;;;80.72;41.67;;;3.00;95.40;;;;;;5053674;28;20498;-86
2021/01/17 01:51:26;;;;;;;63.85;38.15;;;3.00;95.40;;;;;;5047838;28;20480;-89
2021/01/17 01:53:57;;;;;;;65.05;37.08;;;3.00;95.50;;;;;;5048856;28;20029;-88
2021/01/17 01:56:24;;;;;;;67.70;36.00;;;3.10;95.50;;;;;;5040090;28;20029;-88
2021/01/17 01:58:54;;;;;;;62.40;33.72;;;3.10;95.50;;;;;;5052748;28;20503;-88
2021/01/17 02:01:21;;;;;;;63.03;33.13;;;3.10;95.60;;;;;;5037338;28;20112;-88
2021/01/17 02:03:48;;;;;;;59.75;31.30;;;3.10;95.60;;;;;;5045257;28;20033;-88
2021/01/17 02:06:19;;;;;;;53.50;30.13;;;3.20;95.60;;;;;;5050598;28;20033;-88
2021/01/17 02:09:21;;;;;;;56.83;30.65;;;3.30;95.70;;;;;;5044153;28;20120;-88
2021/01/17 02:11:52;;;;;;;59.80;29.45;;;3.40;95.70;;;;;;5042339;28;20040;-85
2021/01/17 02:14:34;;;;;;;56.92;29.23;;;3.40;95.70;;;;;;5046244;28;20585;-85
2021/01/17 02:17:05;;;;;;;51.58;27.42;;;3.40;95.80;;;;;;5044761;28;20480;-88
2021/01/17 02:19:37;;;;;;;53.45;27.08;;;3.40;95.80;;;;;;5048263;28;20061;-87
2021/01/17 02:22:05;;;;;;;45.42;25.58;;;3.50;95.80;;;;;;5046626;28;20032;-88
2021/01/17 02:24:33;;;;;;;48.40;26.10;;;3.50;95.80;;;;;;5042015;28;20037;-87
2021/01/17 02:27:00;;;;;;;45.03;25.73;;;3.40;95.80;;;;;;5045220;28;20049;-83
2021/01/17 02:29:27;;;;;;;48.22;26.70;;;3.40;95.80;;;;;;5046082;28;20052;-83
2021/01/17 02:31:58;;;;;;;49.72;25.50;;;3.50;95.80;;;;;;5045934;28;20035;-88
2021/01/17 02:34:26;;;;;;;49.30;23.35;;;3.50;95.80;;;;;;5047940;28;20040;-87
2021/01/17 02:37:07;;;;;;;52.25;25.83;;;3.50;95.80;;;;;;5049805;28;20037;-87
2021/01/17 02:39:55;;;;;;;43.47;22.23;;;3.50;95.80;;;;;;5058845;28;20056;-86
2021/01/17 02:42:21;;;;;;;46.88;23.63;;;3.50;95.80;;;;;;5040619;28;20029;-87
2021/01/17 02:44:47;;;;;;;46.90;24.55;;;3.60;95.80;;;;;;5048438;28;20032;-87
2021/01/17 02:47:13;;;;;;;49.35;25.95;;;3.50;95.80;;;;;;5063309;28;20029;-88
2021/01/17 02:49:38;;;;;;;42.55;22.77;;;3.50;95.80;;;;;;5051557;28;20021;-86
2021/01/17 02:52:06;;;;;;;43.53;22.58;;;3.50;95.80;;;;;;5054903;28;20573;-87
2021/01/17 02:54:39;;;;;;;49.17;21.20;;;3.50;95.80;;;;;;5056341;28;20464;-87
2021/01/17 02:57:07;;;;;;;40.30;20.65;;;3.40;95.80;;;;;;5045499;28;20087;-87
2021/01/17 02:59:54;;;;;;;38.92;20.33;;;3.40;95.80;;;;;;5049486;28;20048;-86
2021/01/17 03:02:26;;;;;;;40.15;21.08;;;3.40;95.80;;;;;;5052165;28;20036;-87
2021/01/17 03:04:59;;;;;;;36.58;18.73;;;3.30;95.70;;;;;;5043663;28;20388;-87
2021/01/17 03:07:29;;;;;;;38.45;19.30;;;3.40;95.80;;;;;;5048581;28;20045;-87
2021/01/17 03:09:55;;;;;;;40.80;19.65;;;3.40;95.80;;;;;;5049874;28;20465;-86
2021/01/17 03:12:21;;;;;;;42.95;18.95;;;3.30;95.80;;;;;;5053865;28;20480;-87
2021/01/17 03:14:49;;;;;;;38.95;18.60;;;3.40;95.90;;;;;;5056559;28;20048;-86
2021/01/17 03:17:15;;;;;;;41.20;16.98;;;3.30;95.80;;;;;;5046617;28;20037;-85
2021/01/17 03:19:41;;;;;;;46.75;17.70;;;3.40;95.80;;;;;;5052335;28;20025;-86
2021/01/17 03:22:06;;;;;;;39.45;17.42;;;3.40;95.90;;;;;;5048150;28;20033;-87
2021/01/17 03:24:32;;;;;;;44.20;17.15;;;3.40;95.90;;;;;;5050426;28;20044;-86
2021/01/17 03:26:58;;;;;;;36.70;16.15;;;3.40;95.90;;;;;;5050911;28;20060;-86
2021/01/17 03:29:23;;;;;;;32.63;15.38;;;3.40;95.90;;;;;;5044403;28;20059;-88
2021/01/17 03:31:49;;;;;;;30.67;15.65;;;3.40;95.90;;;;;;5049516;28;20110;-87
2021/01/17 03:34:15;;;;;;;35.22;15.60;;;3.40;95.80;;;;;;5047769;28;20041;-87
2021/01/17 03:36:40;;;;;;;36.42;15.75;;;3.40;95.80;;;;;;5051451;28;20041;-86
2021/01/17 03:39:06;;;;;;;36.25;14.68;;;3.40;95.90;;;;;;5059253;28;20582;-85
2021/01/17 03:41:32;;;;;;;44.85;15.63;;;3.30;95.80;;;;;;5049953;28;20036;-86
2021/01/17 03:43:58;;;;;;;38.40;14.18;;;3.30;95.90;;;;;;5039399;28;20032;-86
2021/01/17 03:46:24;;;;;;;40.05;13.18;;;3.30;95.80;;;;;;5049911;28;20067;-86
2021/01/17 03:48:50;;;;;;;41.92;14.07;;;3.30;95.80;;;;;;5049609;28;20033;-85
2021/01/17 03:51:16;;;;;;;32.67;14.95;;;3.30;95.90;;;;;;5050847;28;20040;-85
2021/01/17 03:53:42;;;;;;;38.53;13.13;;;3.30;95.90;;;;;;5047209;28;20033;-86
2021/01/17 03:56:07;;;;;;;41.35;12.80;;;3.30;95.90;;;;;;5046366;28;20067;-85
2021/01/17 03:58:33;;;;;;;31.60;11.65;;;3.40;95.90;;;;;;5044704;28;20124;-88
2021/01/17 04:00:59;;;;;;;30.92;12.25;;;3.30;95.90;;;;;;5050629;28;20404;-85
2021/01/17 04:03:25;;;;;;;31.45;10.35;;;3.40;95.90;;;;;;5044786;28;20384;-87
2021/01/17 04:05:50;;;;;;;37.70;11.48;;;3.40;95.90;;;;;;5051241;28;20048;-86
2021/01/17 04:08:16;;;;;;;29.42;10.23;;;3.40;96.00;;;;;;5046328;28;20043;-86
2021/01/17 04:10:42;;;;;;;32.20;11.07;;;3.40;95.90;;;;;;5048468;28;20053;-87
2021/01/17 04:13:07;;;;;;;34.17;11.15;;;3.40;95.90;;;;;;5047717;28;20388;-87
2021/01/17 04:15:33;;;;;;;34.63;10.98;;;3.50;95.90;;;;;;5045897;28;20175;-86
2021/01/17 04:17:59;;;;;;;31.40;10.82;;;3.40;95.90;;;;;;5047214;28;20029;-86
2021/01/17 04:20:24;;;;;;;29.83;9.52;;;3.50;95.90;;;;;;5049877;28;20122;-85
2021/01/17 04:22:50;;;;;;;32.03;9.25;;;3.50;95.90;;;;;;5053071;28;20124;-87
2021/01/17 04:25:16;;;;;;;32.42;11.30;;;3.50;95.90;;;;;;5047655;28;20441;-87
2021/01/17 04:27:41;;;;;;;34.85;10.88;;;3.50;95.90;;;;;;5055996;28;20067;-85
2021/01/17 04:30:08;;;;;;;30.05;8.95;;;3.50;95.80;;;;;;5044953;28;20593;-86
2021/01/17 04:32:38;;;;;;;31.05;8.75;;;3.50;95.90;;;;;;5037177;28;20029;-84
2021/01/17 04:35:05;;;;;;;34.67;8.88;;;3.40;95.80;;;;;;5049241;28;20124;-86
2021/01/17 04:37:31;;;;;;;28.33;8.93;;;3.50;95.80;;;;;;5051398;28;20040;-85
2021/01/17 04:39:57;;;;;;;26.17;8.75;;;3.40;95.80;;;;;;5058766;28;20033;-87
2021/01/17 04:42:25;;;;;;;31.83;8.57;;;3.40;95.80;;;;;;5054397;28;20459;-82
2021/01/17 04:44:54;;;;;;;30.45;9.20;;;3.40;95.70;;;;;;5047085;28;20029;-88
2021/01/17 04:47:21;;;;;;;28.65;8.43;;;3.40;95.70;;;;;;5052601;28;20455;-87
2021/01/17 04:49:53;;;;;;;38.70;9.63;;;3.40;95.70;;;;;;5050322;28;20033;-87
2021/01/17 04:52:21;;;;;;;30.67;9.00;;;3.40;95.80;;;;;;5048350;28;20120;-84
2021/01/17 04:54:47;;;;;;;34.92;9.90;;;3.50;95.80;;;;;;5050091;28;20120;-87
2021/01/17 04:57:45;;;;;;;27.65;8.25;;;3.50;95.70;;;;;;5048810;28;20056;-87
2021/01/17 05:00:11;;;;;;;31.63;8.80;;;3.50;95.70;;;;;;5044601;28;20025;-88
2021/01/17 05:02:47;;;;;;;32.25;8.95;;;3.50;95.70;;;;;;5050294;28;20041;-87
2021/01/17 05:05:23;;;;;;;30.05;9.20;;;3.40;95.70;;;;;;5049787;28;20048;-87
2021/01/17 05:07:50;;;;;;;35.58;8.95;;;3.50;95.70;;;;;;5046554;28;20052;-85
2021/01/17 05:10:38;;;;;;;29.95;9.25;;;3.50;95.70;;;;;;5048637;28;20055;-84
2021/01/17 05:13:10;;;;;;;32.92;9.75;;;3.50;95.70;;;;;;5045130;28;20039;-86
2021/01/17 05:15:41;;;;;;;38.85;9.00;;;3.50;95.70;;;;;;5044509;28;20063;-87
2021/01/17 05:18:07;;;;;;;29.42;8.80;;;3.50;95.60;;;;;;5042590;28;20041;-86
2021/01/17 05:20:33;;;;;;;26.95;10.02;;;3.50;95.60;;;;;;5043351;28;20037;-87
2021/01/17 05:22:59;;;;;;;33.45;9.10;;;3.50;95.60;;;;;;5049564;28;20052;-86
2021/01/17 05:25:28;;;;;;;40.05;8.93;;;3.50;95.50;;;;;;5044737;28;20037;-87
2021/01/17 05:27:55;;;;;;;33.47;9.32;;;3.50;95.50;;;;;;5043993;28;20393;-87
2021/01/17 05:30:21;;;;;;;37.47;7.90;;;3.60;95.50;;;;;;5042346;28;20052;-83
2021/01/17 05:32:51;;;;;;;33.78;8.52;;;3.60;95.40;;;;;;5047091;28;20037;-88
2021/01/17 05:35:18;;;;;;;33.53;8.45;;;3.60;95.30;;;;;;5045675;28;20036;-87
2021/01/17 05:37:54;;;;;;;35.85;8.98;;;3.60;95.20;;;;;;5046973;28;20032;-87
2021/01/17 05:40:21;;;;;;;32.65;7.72;;;3.60;95.10;;;;;;5043969;28;20040;-87
2021/01/17 05:42:49;;;;;;;25.85;7.97;;;3.60;94.90;;;;;;5046710;28;20072;-87
2021/01/17 05:45:23;;;;;;;31.15;7.88;;;3.60;94.80;;;;;;5047407;28;20048;-87
2021/01/17 05:48:02;;;;;;;37.67;7.97;;;3.60;94.70;;;;;;5046784;28;20033;-87
2021/01/17 05:50:30;;;;;;;27.52;7.30;;;3.60;94.60;;;;;;5047817;28;20029;-87
2021/01/17 05:53:05;;;;;;;28.17;7.68;;;3.60;94.50;;;;;;5044048;28;20051;-86
2021/01/17 05:55:36;;;;;;;23.48;6.93;;;3.60;94.40;;;;;;5044607;28;20488;-87
2021/01/17 05:58:22;;;;;;;31.15;6.82;;;3.60;94.40;;;;;;5043072;28;20051;-86
2021/01/17 06:00:48;;;;;;;26.13;7.20;;;3.60;94.30;;;;;;5046357;28;20102;-83
2021/01/17 06:03:25;;;;;;;24.13;7.30;;;3.60;94.30;;;;;;5044795;28;20503;-86
2021/01/17 06:05:56;;;;;;;27.08;7.57;;;3.60;94.30;;;;;;5049206;28;20045;-87
2021/01/17 06:08:24;;;;;;;30.33;6.47;;;3.60;94.30;;;;;;5047541;28;20060;-87
2021/01/17 06:10:51;;;;;;;29.15;6.57;;;3.60;94.20;;;;;;5049310;28;20029;-87
2021/01/17 06:13:21;;;;;;;35.65;6.88;;;3.70;94.20;;;;;;5043612;28;20044;-81
2021/01/17 06:15:47;;;;;;;27.90;6.47;;;3.60;94.10;;;;;;5046704;28;20043;-87
2021/01/17 06:18:21;;;;;;;33.53;7.30;;;3.70;94.10;;;;;;5047712;28;20029;-87
2021/01/17 06:20:55;;;;;;;27.10;6.97;;;3.70;94.10;;;;;;5051222;28;20086;-86
2021/01/17 06:23:21;;;;;;;31.38;7.28;;;3.70;94.00;;;;;;5048902;28;20045;-88
2021/01/17 06:26:01;;;;;;;29.90;7.80;;;3.80;94.00;;;;;;5057312;28;20133;-84
2021/01/17 06:28:41;;;;;;;42.25;10.57;;;3.80;93.90;;;;;;5052149;28;20033;-87
2021/01/17 06:31:08;;;;;;;26.27;10.25;;;3.80;93.90;;;;;;5049815;28;20033;-87
2021/01/17 06:33:35;;;;;;;30.48;7.90;;;3.80;93.80;;;;;;5049824;28;20121;-87
2021/01/17 06:36:10;;;;;;;35.47;7.45;;;3.80;93.70;;;;;;5048087;28;20098;-87
2021/01/17 06:38:36;;;;;;;28.60;8.00;;;3.90;93.60;;;;;;5047568;28;20037;-84
2021/01/17 06:41:02;;;;;;;22.15;6.80;;;3.80;93.50;;;;;;5051829;28;20043;-86
2021/01/17 06:43:30;;;;;;;32.97;7.85;;;3.90;93.40;;;;;;5046922;28;20040;-88
2021/01/17 06:45:57;;;;;;;29.90;8.82;;;3.90;93.40;;;;;;5048992;28;20041;-88
2021/01/17 06:48:26;;;;;;;28.13;7.00;;;4.00;93.40;;;;;;5048161;28;20093;-87
2021/01/17 06:50:52;;;;;;;27.85;7.43;;;4.00;93.30;;;;;;5047289;28;20495;-84
2021/01/17 06:53:21;;;;;;;29.35;6.53;;;4.00;93.20;;;;;;5046046;28;20088;-85
2021/01/17 06:55:47;;;;;;;24.23;6.93;;;4.00;93.20;;;;;;5047363;28;20049;-85
2021/01/17 06:58:19;;;;;;;31.83;6.72;;;4.00;93.10;;;;;;5050521;28;20056;-84
2021/01/17 07:00:46;;;;;;;30.65;8.77;;;3.90;93.20;;;;;;5046857;28;20035;-87
2021/01/17 07:03:17;;;;;;;30.67;8.13;;;3.90;93.20;;;;;;5041439;28;20056;-87
2021/01/17 07:05:53;;;;;;;22.48;6.45;;;3.90;93.30;;;;;;5052469;28;20475;-85
2021/01/17 07:08:50;;;;;;;26.45;6.82;;;3.90;93.20;;;;;;5048159;28;20502;-84
2021/01/17 07:11:33;;;;;;;30.42;6.70;;;3.90;93.20;;;;;;5048468;28;20032;-86
2021/01/17 07:14:07;;;;;;;22.40;7.35;;;3.90;93.30;;;;;;5052621;28;20037;-83
2021/01/17 07:16:33;;;;;;;25.02;9.40;;;3.90;93.20;;;;;;5047339;28;20032;-86
2021/01/17 07:19:05;;;;;;;26.35;8.02;;;3.90;93.30;;;;;;5050665;28;20131;-86
2021/01/17 07:21:38;;;;;;;29.17;8.23;;;3.90;93.30;;;;;;5051093;28;20033;-86
2021/01/17 07:24:06;;;;;;;29.92;8.90;;;3.90;93.20;;;;;;5055121;28;20036;-88
2021/01/17 07:26:47;;;;;;;26.63;7.47;;;3.90;93.20;;;;;;5047094;28;20037;-86
2021/01/17 07:29:16;;;;;;;29.50;8.15;;;4.00;93.10;;;;;;5050838;28;21348;-85
2021/01/17 07:31:44;;;;;;;35.60;9.02;;;4.00;92.90;;;;;;5049329;28;20037;-86
2021/01/17 07:34:12;;;;;;;33.85;7.32;;;4.00;92.90;;;;;;5053067;28;20033;-86
2021/01/17 07:36:48;;;;;;;35.03;7.72;;;4.00;92.90;;;;;;5050235;28;20128;-86
2021/01/17 07:39:24;;;;;;;29.42;7.35;;;4.00;92.90;;;;;;5049090;28;20029;-87
2021/01/17 07:41:52;;;;;;;25.02;7.68;;;4.10;92.80;;;;;;5046846;28;20041;-86
2021/01/17 07:44:20;;;;;;;24.83;7.72;;;4.10;92.70;;;;;;5051073;28;20072;-86
2021/01/17 07:46:46;;;;;;;32.47;7.85;;;4.10;92.50;;;;;;5047175;28;20041;-87
2021/01/17 07:49:13;;;;;;;26.45;8.02;;;4.10;92.50;;;;;;5044766;28;20037;-86
2021/01/17 07:51:39;;;;;;;26.23;7.07;;;4.10;92.50;;;;;;5047867;28;20123;-87
2021/01/17 07:54:21;;;;;;;27.85;7.22;;;4.10;92.40;;;;;;5047086;28;20059;-73
2021/01/17 07:56:47;;;;;;;31.05;9.50;;;4.10;92.60;;;;;;5051081;28;20120;-85
2021/01/17 07:59:13;;;;;;;35.30;9.43;;;4.00;92.50;;;;;;5047437;28;20115;-83
2021/01/17 08:01:43;;;;;;;26.77;9.30;;;4.00;92.60;;;;;;5052108;28;20037;-84
2021/01/17 08:04:14;;;;;;;33.75;8.88;;;4.10;92.50;;;;;;5047169;28;20037;-77
2021/01/17 08:06:43;;;;;;;38.95;15.85;;;4.10;92.50;;;;;;5044362;28;20124;-76
2021/01/17 08:09:12;;;;;;;43.35;14.23;;;4.10;92.40;;;;;;5045053;28;20048;-77
2021/01/17 08:11:57;;;;;;;37.83;13.85;;;4.10;92.40;;;;;;5051170;28;20459;-77
2021/01/17 08:14:34;;;;;;;26.48;10.25;;;4.10;92.30;;;;;;5045864;28;20040;-76
2021/01/17 08:17:20;;;;;;;33.17;7.78;;;4.20;92.30;;;;;;5043991;28;20095;-76
2021/01/17 08:19:49;;;;;;;25.65;7.07;;;4.20;92.10;;;;;;5048157;28;20514;-76
2021/01/17 08:22:18;;;;;;;25.40;6.05;;;4.20;92.10;;;;;;5058711;28;20046;-81
2021/01/17 08:24:47;;;;;;;30.48;6.75;;;4.20;92.10;;;;;;5049578;28;20124;-77
2021/01/17 08:27:30;;;;;;;24.83;6.13;;;4.30;92.10;;;;;;5048537;28;20580;-77
2021/01/17 08:30:07;;;;;;;32.75;8.27;;;4.30;91.80;;;;;;5052876;28;20048;-77
2021/01/17 08:32:40;;;;;;;22.27;6.63;;;4.30;91.80;;;;;;5049255;28;20128;-79
2021/01/17 08:35:29;;;;;;;22.80;6.28;;;4.30;91.70;;;;;;5045765;28;20663;-77
2021/01/17 08:38:16;;;;;;;24.27;7.68;;;4.30;91.60;;;;;;5038360;28;20037;-78
2021/01/17 08:40:45;;;;;;;26.95;9.32;;;4.30;91.60;;;;;;5043812;28;20082;-76
2021/01/17 08:43:15;;;;;;;23.60;8.90;;;4.30;91.60;;;;;;5045042;28;20036;-75
2021/01/17 08:45:48;;;;;;;25.33;7.50;;;4.40;91.60;;;;;;5043763;28;20653;-75
2021/01/17 08:48:16;;;;;;;25.15;8.93;;;4.40;91.60;;;;;;5045577;28;20051;-77
2021/01/17 08:50:50;;;;;;;28.42;8.40;;;4.40;91.50;;;;;;5048881;28;20100;-75
2021/01/17 08:53:27;;;;;;;30.07;7.93;;;4.40;91.50;;;;;;5045631;28;20509;-77
2021/01/17 08:55:57;;;;;;;25.02;7.55;;;4.50;91.50;;;;;;5043711;28;20097;-76
2021/01/17 08:58:26;;;;;;;22.88;8.43;;;4.50;91.50;;;;;;5043696;28;20037;-74
2021/01/17 09:00:51;;;;;;;25.83;11.18;;;4.60;91.50;;;;;;5048049;28;20028;-76
2021/01/17 09:03:36;;;;;;;30.98;8.98;;;4.60;91.50;;;;;;5045862;28;20646;-82
2021/01/17 09:06:14;;;;;;;23.38;8.13;;;4.70;91.50;;;;;;5045514;28;20045;-76
2021/01/17 09:08:53;;;;;;;28.58;7.60;;;4.80;91.40;;;;;;5046150;28;20033;-76
2021/01/17 09:11:24;;;;;;;29.30;8.20;;;4.90;91.20;;;;;;5044982;28;20059;-77
2021/01/17 09:14:12;;;;;;;25.88;7.65;;;4.90;91.10;;;;;;5047490;28;20029;-75
2021/01/17 09:16:57;;;;;;;27.15;7.70;;;5.00;91.10;;;;;;5044762;28;20040;-78
2021/01/17 09:19:31;;;;;;;30.23;8.30;;;5.00;91.00;;;;;;5050834;28;20040;-77
2021/01/17 09:21:59;;;;;;;29.00;7.05;;;5.00;91.10;;;;;;5045094;28;20434;-77
2021/01/17 09:24:36;;;;;;;25.48;7.47;;;5.00;91.10;;;;;;5049076;28;20037;-74
2021/01/17 09:27:03;;;;;;;25.08;7.85;;;5.00;91.10;;;;;;5046902;28;20072;-80
2021/01/17 09:29:31;;;;;;;28.08;7.90;;;5.00;91.10;;;;;;5049326;28;20071;-77
2021/01/17 09:32:16;;;;;;;20.05;7.18;;;5.10;91.20;;;;;;5043926;28;20033;-75
2021/01/17 09:34:44;;;;;;;24.85;7.68;;;5.10;90.90;;;;;;5046058;28;20117;-76
2021/01/17 09:37:14;;;;;;;28.17;7.63;;;5.10;90.90;;;;;;5046065;28;20040;-70
2021/01/17 09:39:45;;;;;;;29.35;8.00;;;5.20;90.90;;;;;;5055082;28;20112;-70
2021/01/17 09:42:13;;;;;;;33.10;9.52;;;5.20;90.90;;;;;;5044851;28;20067;-73
2021/01/17 09:44:40;;;;;;;27.92;9.38;;;5.40;90.70;;;;;;5043664;28;20485;-71
2021/01/17 09:47:20;;;;;;;29.48;8.93;;;5.50;90.70;;;;;;5044857;28;20057;-73
2021/01/17 09:49:47;;;;;;;24.08;7.07;;;5.50;90.30;;;;;;5046390;28;20443;-70
2021/01/17 09:52:17;;;;;;;27.85;7.82;;;5.50;90.20;;;;;;5045948;28;20036;-70
2021/01/17 09:54:43;;;;;;;23.33;7.85;;;5.50;90.00;;;;;;5047296;28;20036;-75
2021/01/17 09:57:20;;;;;;;35.85;12.25;;;5.60;90.00;;;;;;5047037;28;20037;-72
2021/01/17 09:59:48;;;;;;;25.60;11.15;;;5.70;89.80;;;;;;5049481;28;20068;-72
2021/01/17 10:02:20;;;;;;;28.88;10.18;;;5.90;89.30;;;;;;5045771;28;20032;-71
2021/01/17 10:04:46;;;;;;;26.83;8.85;;;6.00;88.90;;;;;;5044289;28;20459;-70
2021/01/17 10:07:18;;;;;;;29.27;10.57;;;6.10;88.50;;;;;;5038716;28;20120;-75
2021/01/17 10:09:44;;;;;;;30.45;8.48;;;6.10;88.80;;;;;;5034888;28;20131;-71
2021/01/17 10:12:11;;;;;;;24.30;8.30;;;6.00;88.70;;;;;;5035846;28;20068;-71
2021/01/17 10:14:37;;;;;;;25.63;7.38;;;6.00;88.60;;;;;;5036547;28;20037;-75
2021/01/17 10:17:06;;;;;;;24.80;7.28;;;6.10;88.50;;;;;;5035169;28;20476;-75
2021/01/17 10:19:33;;;;;;;26.42;8.05;;;6.00;88.60;;;;;;5039602;28;20767;-72
2021/01/17 10:22:00;;;;;;;25.38;7.75;;;6.00;88.80;;;;;;5034476;28;20302;-74
2021/01/17 10:24:32;;;;;;;21.88;7.65;;;5.90;88.80;;;;;;5034625;28;20057;-71
2021/01/17 10:27:00;;;;;;;27.27;8.45;;;5.90;88.80;;;;;;5036960;28;20069;-72
2021/01/17 10:29:44;;;;;;;22.58;7.82;;;6.00;88.90;;;;;;5038069;28;20049;-75
2021/01/17 10:32:12;;;;;;;23.85;6.53;;;6.00;88.80;;;;;;5033503;28;20500;-71
2021/01/17 10:34:49;;;;;;;24.35;7.18;;;6.10;88.60;;;;;;5036229;28;20059;-71
2021/01/17 10:37:16;;;;;;;23.35;7.25;;;6.10;88.40;;;;;;5036450;28;20041;-73
2021/01/17 10:39:42;;;;;;;30.50;6.30;;;6.20;87.90;;;;;;5036768;28;20126;-71
2021/01/17 10:42:32;;;;;;;24.30;6.05;;;6.20;88.00;;;;;;5037064;28;20040;-73
2021/01/17 10:45:03;;;;;;;24.67;6.72;;;6.20;88.00;;;;;;5030377;28;20392;-71
2021/01/17 10:47:41;;;;;;;28.73;7.28;;;6.50;87.80;;;;;;5037623;28;20128;-73
2021/01/17 10:50:11;;;;;;;26.02;6.68;;;6.60;87.60;;;;;;5034427;28;20041;-71
2021/01/17 10:53:03;;;;;;;18.20;5.65;;;6.60;87.10;;;;;;5030722;28;20037;-72
2021/01/17 10:55:35;;;;;;;19.40;7.95;;;6.70;87.20;;;;;;5021834;28;20299;-70
2021/01/17 10:58:03;;;;;;;21.48;6.45;;;6.70;87.10;;;;;;5026228;28;20044;-73
2021/01/17 11:00:29;;;;;;;19.95;6.05;;;6.70;86.80;;;;;;5020666;28;20043;-72
2021/01/17 11:03:08;;;;;;;21.38;5.97;;;6.70;86.90;;;;;;5029866;28;20032;-70
2021/01/17 11:05:34;;;;;;;21.35;5.85;;;6.70;86.90;;;;;;5034317;28;20527;-74
2021/01/17 11:08:00;;;;;;;23.42;6.10;;;6.60;86.70;;;;;;5035743;28;20532;-69
2021/01/17 11:10:26;;;;;;;17.40;4.95;;;6.60;86.60;;;;;;5037090;28;20064;-72
2021/01/17 11:12:52;;;;;;;23.40;6.45;;;6.50;86.60;;;;;;5038366;28;20057;-72
2021/01/17 11:15:22;;;;;;;16.27;6.00;;;6.50;86.60;;;;;;5041292;28;20057;-73
2021/01/17 11:17:56;;;;;;;16.90;4.80;;;6.60;86.40;;;;;;5037829;28;20105;-73
2021/01/17 11:20:26;;;;;;;19.02;5.22;;;6.50;86.50;;;;;;5039248;28;20029;-70
2021/01/17 11:22:58;;;;;;;18.27;5.72;;;6.40;86.40;;;;;;5046656;28;20056;-74
2021/01/17 11:25:24;;;;;;;15.95;5.75;;;6.40;86.70;;;;;;5039563;28;20040;-71
2021/01/17 11:28:00;;;;;;;24.92;5.70;;;6.40;86.80;;;;;;5039709;28;20037;-71
2021/01/17 11:30:27;;;;;;;19.75;6.15;;;6.40;86.90;;;;;;5038479;28;20507;-72
2021/01/17 11:33:10;;;;;;;14.40;5.00;;;6.40;86.90;;;;;;5037837;28;20047;-71
2021/01/17 11:35:36;;;;;;;21.98;4.97;;;6.40;86.80;;;;;;5052321;28;20029;-70
2021/01/17 11:38:03;;;;;;;13.52;4.68;;;6.40;87.00;;;;;;5029893;28;20433;-71
2021/01/17 11:40:28;;;;;;;16.15;4.97;;;6.40;86.80;;;;;;5039643;28;20025;-71
2021/01/17 11:43:12;;;;;;;18.13;4.82;;;6.40;87.10;;;;;;5040567;28;20389;-71
2021/01/17 11:45:43;;;;;;;16.85;4.68;;;6.30;87.20;;;;;;5035952;28;20078;-71
2021/01/17 11:48:10;;;;;;;20.95;5.13;;;6.30;86.90;;;;;;5036762;28;20425;-70
2021/01/17 11:50:43;;;;;;;19.70;5.85;;;6.30;87.00;;;;;;5038754;28;20029;-75
2021/01/17 11:53:10;;;;;;;21.43;5.80;;;6.40;87.20;;;;;;5033281;28;20419;-72
2021/01/17 11:55:36;;;;;;;21.52;6.43;;;6.30;86.90;;;;;;5037172;28;20113;-74
2021/01/17 11:58:09;;;;;;;15.88;4.70;;;6.30;87.00;;;;;;5038601;28;20428;-75
2021/01/17 12:00:53;;;;;;;15.13;5.05;;;6.40;86.80;;;;;;5031656;28;20053;-71
2021/01/17 12:03:27;;;;;;;16.80;5.18;;;6.30;86.30;;;;;;5037397;28;20194;-75
2021/01/17 12:06:04;;;;;;;23.65;5.63;;;6.40;86.40;;;;;;5043456;28;20477;-70
2021/01/17 12:08:50;;;;;;;16.30;5.57;;;6.40;86.30;;;;;;5044698;28;20048;-71
2021/01/17 12:11:42;;;;;;;14.75;4.28;;;6.50;86.10;;;;;;5042545;28;20033;-72
2021/01/17 12:14:18;;;;;;;18.25;4.65;;;6.50;85.90;;;;;;5044504;28;20131;-72
2021/01/17 12:16:55;;;;;;;21.45;5.40;;;6.60;85.70;;;;;;5044488;28;20480;-71
2021/01/17 12:19:21;;;;;;;17.10;4.90;;;6.60;85.70;;;;;;5048221;28;20045;-72
2021/01/17 12:21:49;;;;;;;16.63;4.50;;;6.60;85.90;;;;;;5047153;28;20052;-72
2021/01/17 12:24:16;;;;;;;20.17;4.80;;;6.60;85.80;;;;;;5048269;28;20044;-71
2021/01/17 12:26:43;;;;;;;28.83;5.82;;;6.60;85.80;;;;;;5045262;28;20116;-70
2021/01/17 12:29:09;;;;;;;22.83;5.38;;;6.60;85.90;;;;;;5046597;28;20041;-71
2021/01/17 12:31:35;;;;;;;19.13;5.22;;;6.60;86.20;;;;;;5050301;28;20033;-70
2021/01/17 12:34:01;;;;;;;21.63;5.13;;;6.60;86.40;;;;;;5045242;28;20099;-70
2021/01/17 12:36:29;;;;;;;20.67;5.65;;;6.60;86.30;;;;;;5045874;28;20071;-70
2021/01/17 12:38:56;;;;;;;14.40;4.93;;;6.50;86.30;;;;;;5045788;28;20126;-70
2021/01/17 12:41:25;;;;;;;17.90;5.85;;;6.60;86.30;;;;;;5042758;28;20786;-69
2021/01/17 12:43:51;;;;;;;20.25;5.20;;;6.60;86.30;;;;;;5037936;28;20025;-70
2021/01/17 12:46:18;;;;;;;27.70;5.57;;;6.60;86.20;;;;;;5045372;28;20534;-70
2021/01/17 12:48:44;;;;;;;21.33;5.28;;;6.50;85.90;;;;;;5045031;28;20041;-70
2021/01/17 12:51:10;;;;;;;20.38;5.20;;;6.50;86.30;;;;;;5049908;28;20067;-71
2021/01/17 12:53:40;;;;;;;16.83;4.88;;;6.50;85.90;;;;;;5047517;28;20131;-72
2021/01/17 12:56:07;;;;;;;14.80;5.00;;;6.60;85.70;;;;;;5044430;28;20109;-71
2021/01/17 12:58:33;;;;;;;14.68;4.95;;;6.60;85.70;;;;;;5046207;28;20040;-70